createdAt,value
2023-01-30T00:01:07.016Z,13.98
2023-01-30T00:03:47.524Z,17.92
2023-01-30T00:06:20.598Z,20.33
2023-01-30T00:08:49.196Z,22.08
2023-01-30T00:11:20.739Z,21.23
2023-01-30T00:13:50.607Z,11.45
2023-01-30T00:16:20.794Z,21.92
2023-01-30T00:18:52.628Z,20.42
2023-01-30T00:21:24.504Z,18.20
2023-01-30T00:23:52.844Z,16.60
2023-01-30T00:26:21.296Z,23.40
2023-01-30T00:28:53.938Z,20.42
2023-01-30T00:31:24.441Z,22.33
2023-01-30T00:33:53.449Z,19.98
2023-01-30T00:36:28.323Z,21.05
2023-01-30T00:38:59.145Z,23.58
2023-01-30T00:41:46.608Z,13.77
2023-01-30T00:44:33.132Z,19.45
2023-01-30T00:47:06.832Z,19.60
2023-01-30T00:49:35.933Z,12.88
2023-01-30T00:52:04.284Z,20.30
2023-01-30T00:54:33.840Z,19.23
2023-01-30T00:57:04.077Z,21.25
2023-01-30T00:59:35.880Z,16.00
2023-01-30T01:02:08.618Z,21.08
2023-01-30T01:04:43.267Z,20.42
2023-01-30T01:07:14.149Z,20.85
2023-01-30T01:09:48.104Z,18.95
2023-01-30T01:12:16.614Z,19.10
2023-01-30T01:14:47.419Z,19.90
2023-01-30T01:17:15.962Z,21.60
2023-01-30T01:19:45.071Z,20.20
2023-01-30T01:22:18.492Z,21.67
2023-01-30T01:24:48.556Z,16.95
2023-01-30T01:27:19.394Z,21.08
2023-01-30T01:29:48.784Z,19.10
2023-01-30T01:32:17.578Z,22.33
2023-01-30T01:34:50.800Z,21.05
2023-01-30T01:37:22.005Z,19.23
2023-01-30T01:40:12.519Z,22.27
2023-01-30T01:42:47.044Z,21.75
2023-01-30T01:45:25.760Z,20.35
2023-01-30T01:48:00.638Z,20.13
2023-01-30T01:50:39.850Z,20.48
2023-01-30T01:53:09.558Z,22.35
2023-01-30T01:55:39.799Z,15.98
2023-01-30T01:58:19.315Z,19.40
2023-01-30T02:00:49.348Z,21.35
2023-01-30T02:03:26.122Z,20.92
2023-01-30T02:05:56.767Z,18.88
2023-01-30T02:08:28.400Z,21.65
2023-01-30T02:11:04.237Z,19.02
2023-01-30T02:13:34.835Z,20.52
2023-01-30T02:16:04.229Z,18.58
2023-01-30T02:18:33.481Z,20.70
2023-01-30T02:21:21.110Z,18.40
2023-01-30T02:24:02.556Z,20.83
2023-01-30T02:26:45.305Z,18.63
2023-01-30T02:29:15.379Z,19.65
2023-01-30T02:31:46.467Z,11.65
2023-01-30T02:34:15.101Z,19.60
2023-01-30T02:36:46.192Z,20.98
2023-01-30T02:39:35.158Z,19.10
2023-01-30T02:42:15.223Z,18.10
2023-01-30T02:44:43.223Z,18.05
2023-01-30T02:47:11.421Z,18.17
2023-01-30T02:49:58.415Z,20.48
2023-01-30T02:52:27.120Z,19.58
2023-01-30T02:54:57.370Z,17.42
2023-01-30T02:57:27.237Z,19.48
2023-01-30T03:00:03.402Z,21.60
2023-01-30T03:02:35.923Z,20.02
2023-01-30T03:05:14.868Z,19.80
2023-01-30T03:07:49.084Z,18.50
2023-01-30T03:10:23.543Z,18.88
2023-01-30T03:13:15.088Z,11.35
2023-01-30T03:15:51.072Z,18.65
2023-01-30T03:18:20.060Z,18.98
2023-01-30T03:20:48.368Z,19.02
2023-01-30T03:23:19.493Z,19.60
2023-01-30T03:25:49.709Z,20.08
2023-01-30T03:28:20.899Z,18.88
2023-01-30T03:30:50.272Z,19.70
2023-01-30T03:33:26.529Z,20.27
2023-01-30T03:35:55.861Z,21.42
2023-01-30T03:38:25.682Z,20.42
2023-01-30T03:40:56.138Z,22.77
2023-01-30T03:43:25.144Z,17.70
2023-01-30T03:45:53.823Z,19.90
2023-01-30T03:48:22.559Z,19.70
2023-01-30T03:50:51.448Z,21.30
2023-01-30T03:53:20.164Z,22.27
2023-01-30T03:55:48.498Z,18.17
2023-01-30T03:58:19.287Z,20.77
2023-01-30T04:00:49.279Z,19.48
2023-01-30T04:03:35.504Z,21.48
2023-01-30T04:06:07.101Z,20.25
2023-01-30T04:08:37.083Z,21.50
2023-01-30T04:11:06.509Z,21.40
2023-01-30T04:13:37.759Z,19.15
2023-01-30T04:16:21.342Z,21.05
2023-01-30T04:19:08.411Z,20.35
2023-01-30T04:21:36.698Z,20.08
2023-01-30T04:24:05.597Z,18.73
2023-01-30T04:26:38.531Z,23.42
2023-01-30T04:29:07.867Z,22.50
2023-01-30T04:31:39.637Z,22.63
2023-01-30T04:34:19.735Z,22.23
2023-01-30T04:36:49.040Z,20.52
2023-01-30T04:39:21.167Z,19.35
2023-01-30T04:41:50.099Z,21.73
2023-01-30T04:44:23.002Z,21.88
2023-01-30T04:47:02.385Z,22.10
2023-01-30T04:49:31.848Z,19.63
2023-01-30T04:52:02.211Z,22.77
2023-01-30T04:54:31.662Z,21.75
2023-01-30T04:57:02.570Z,23.25
2023-01-30T04:59:34.691Z,21.60
2023-01-30T05:02:07.925Z,17.58
2023-01-30T05:04:36.936Z,20.38
2023-01-30T05:07:07.613Z,20.17
2023-01-30T05:09:37.529Z,19.52
2023-01-30T05:12:06.944Z,20.98
2023-01-30T05:14:37.096Z,20.20
2023-01-30T05:17:06.960Z,21.75
2023-01-30T05:19:36.096Z,19.75
2023-01-30T05:22:05.258Z,17.00
2023-01-30T05:24:36.761Z,19.33
2023-01-30T05:27:08.425Z,18.30
2023-01-30T05:29:40.219Z,16.52
2023-01-30T05:34:44.295Z,17.38
2023-01-30T05:37:14.214Z,18.52
2023-01-30T05:39:47.546Z,18.30
2023-01-30T05:42:16.387Z,18.20
2023-01-30T05:44:48.528Z,18.23
2023-01-30T05:47:16.949Z,17.73
2023-01-30T05:49:48.847Z,17.77
2023-01-30T05:52:17.595Z,17.25
2023-01-30T05:54:49.689Z,18.75
2023-01-30T05:57:20.347Z,16.92
2023-01-30T05:59:48.980Z,18.80
2023-01-30T06:02:17.284Z,18.00
2023-01-30T06:04:51.600Z,19.33
2023-01-30T06:07:23.233Z,17.70
2023-01-30T06:09:56.421Z,17.30
2023-01-30T06:12:25.962Z,15.80
2023-01-30T06:14:56.164Z,15.63
2023-01-30T06:17:29.773Z,18.33
2023-01-30T06:20:00.925Z,19.05
2023-01-30T06:22:37.072Z,18.60
2023-01-30T06:25:07.178Z,18.38
2023-01-30T06:27:40.678Z,18.20
2023-01-30T06:30:09.584Z,19.30
2023-01-30T06:32:50.679Z,18.65
2023-01-30T06:35:20.926Z,18.48
2023-01-30T06:37:55.614Z,16.88
2023-01-30T06:40:24.991Z,17.80
2023-01-30T06:42:56.649Z,17.20
2023-01-30T06:45:27.645Z,17.17
2023-01-30T06:47:58.597Z,16.25
2023-01-30T06:50:29.323Z,16.25
2023-01-30T06:52:58.248Z,18.80
2023-01-30T06:55:30.759Z,15.23
2023-01-30T06:58:09.248Z,17.13
2023-01-30T07:00:42.310Z,17.45
2023-01-30T07:03:18.572Z,20.65
2023-01-30T07:05:49.507Z,18.57
2023-01-30T07:08:19.013Z,18.90
2023-01-30T07:10:48.968Z,17.70
2023-01-30T07:13:19.892Z,19.00
2023-01-30T07:15:49.433Z,18.95
2023-01-30T07:18:18.187Z,18.85
2023-01-30T07:20:48.173Z,17.27
2023-01-30T07:23:19.550Z,19.05
2023-01-30T07:25:49.101Z,19.85
2023-01-30T07:28:18.781Z,21.25
2023-01-30T07:30:52.685Z,21.35
2023-01-30T07:33:24.792Z,20.52
2023-01-30T07:35:53.909Z,20.52
2023-01-30T07:38:22.464Z,19.30
2023-01-30T07:40:51.774Z,17.95
2023-01-30T07:43:20.650Z,19.50
2023-01-30T07:45:49.823Z,18.95
2023-01-30T07:48:19.293Z,19.38
2023-01-30T07:50:50.756Z,18.27
2023-01-30T07:53:20.013Z,18.05
2023-01-30T07:55:52.948Z,19.77
2023-01-30T07:58:21.835Z,19.33
2023-01-30T08:00:55.868Z,19.08
2023-01-30T08:03:37.672Z,18.08
2023-01-30T08:06:10.847Z,17.60
2023-01-30T08:08:41.714Z,17.58
2023-01-30T08:11:12.707Z,17.02
2023-01-30T08:13:41.038Z,15.30
2023-01-30T08:16:10.710Z,16.50
2023-01-30T08:18:39.212Z,15.95
2023-01-30T08:21:11.175Z,16.00
2023-01-30T08:23:42.247Z,15.30
2023-01-30T08:26:13.901Z,13.63
2023-01-30T08:28:42.823Z,14.07
2023-01-30T08:31:13.422Z,12.73
2023-01-30T08:33:42.676Z,11.48
2023-01-30T08:36:15.479Z,12.00
2023-01-30T08:38:46.051Z,12.45
2023-01-30T08:41:14.544Z,24.15
2023-01-30T08:43:45.044Z,14.00
2023-01-30T08:46:17.416Z,12.70
2023-01-30T08:48:49.994Z,12.63
2023-01-30T08:51:22.084Z,13.05
2023-01-30T08:53:56.159Z,12.60
2023-01-30T08:56:25.399Z,12.13
2023-01-30T08:58:53.746Z,10.60
2023-01-30T09:01:22.420Z,10.90
2023-01-30T09:03:52.055Z,10.38
2023-01-30T09:06:21.220Z,9.77
2023-01-30T09:08:52.912Z,9.15
2023-01-30T09:11:21.708Z,7.35
2023-01-30T09:13:52.078Z,7.22
2023-01-30T09:16:21.111Z,7.60
2023-01-30T09:18:51.291Z,6.70
2023-01-30T09:21:22.892Z,6.25
2023-01-30T09:23:51.323Z,6.65
2023-01-30T09:26:20.213Z,5.20
2023-01-30T09:28:49.346Z,4.57
2023-01-30T09:31:20.054Z,4.57
2023-01-30T09:33:50.751Z,3.83
2023-01-30T09:36:20.391Z,5.05
2023-01-30T09:38:49.057Z,4.43
2023-01-30T09:41:36.289Z,8.73
2023-01-30T09:44:30.894Z,6.60
2023-01-30T09:47:25.487Z,4.05
2023-01-30T09:52:21.411Z,3.83
2023-01-30T09:54:49.379Z,4.90
2023-01-30T09:57:21.290Z,3.00
2023-01-30T09:59:53.079Z,3.40
2023-01-30T10:02:36.004Z,3.47
2023-01-30T10:05:05.221Z,3.67
2023-01-30T10:07:48.024Z,4.55
2023-01-30T10:10:35.541Z,3.85
2023-01-30T10:13:19.377Z,2.65
2023-01-30T10:15:59.225Z,3.45
2023-01-30T10:18:45.987Z,2.78
2023-01-30T10:21:32.352Z,3.20
2023-01-30T10:24:16.428Z,5.32
2023-01-30T10:26:44.552Z,3.20
2023-01-30T10:29:15.609Z,3.55
2023-01-30T10:31:47.143Z,3.30
2023-01-30T10:34:28.076Z,2.87
2023-01-30T10:36:59.386Z,1.88
2023-01-30T10:39:54.285Z,2.92
2023-01-30T10:42:32.948Z,2.08
2023-01-30T10:45:11.311Z,2.40
2023-01-30T10:47:50.421Z,4.25
2023-01-30T10:50:29.891Z,2.90
2023-01-30T10:53:24.303Z,2.58
2023-01-30T10:55:56.465Z,2.78
2023-01-30T10:58:38.802Z,2.15
2023-01-30T11:01:08.768Z,2.30
2023-01-30T11:03:39.711Z,1.90
2023-01-30T11:06:12.677Z,2.50
2023-01-30T11:08:41.805Z,2.35
2023-01-30T11:11:27.131Z,1.13
2023-01-30T11:14:02.710Z,2.00
2023-01-30T11:16:32.315Z,1.90
2023-01-30T11:19:19.436Z,1.75
2023-01-30T11:21:55.136Z,1.40
2023-01-30T11:24:25.790Z,2.10
2023-01-30T11:26:54.012Z,2.28
2023-01-30T11:29:28.692Z,2.50
2023-01-30T11:32:01.789Z,1.80
2023-01-30T11:34:31.553Z,1.83
2023-01-30T11:37:16.485Z,3.22
2023-01-30T11:39:49.651Z,1.70
2023-01-30T11:42:20.053Z,1.75
2023-01-30T11:45:06.437Z,1.92
2023-01-30T11:48:01.762Z,1.55
2023-01-30T11:50:44.023Z,1.63
2023-01-30T11:53:22.526Z,1.95
2023-01-30T11:56:05.215Z,2.20
2023-01-30T11:58:39.456Z,2.80
2023-01-30T12:01:11.068Z,3.70
2023-01-30T12:03:48.682Z,1.33
2023-01-30T12:08:47.589Z,3.75
2023-01-30T12:11:27.620Z,2.72
2023-01-30T12:14:06.195Z,2.80
2023-01-30T12:16:50.252Z,1.83
2023-01-30T12:19:18.461Z,2.33
2023-01-30T12:21:52.617Z,1.25
2023-01-30T12:24:23.002Z,1.83
2023-01-30T12:26:54.670Z,2.85
2023-01-30T12:29:29.326Z,1.33
2023-01-30T12:32:03.222Z,1.98
2023-01-30T12:34:32.044Z,1.55
2023-01-30T12:37:11.753Z,2.55
2023-01-30T12:39:48.024Z,1.85
2023-01-30T12:42:25.105Z,1.83
2023-01-30T12:44:57.104Z,1.55
2023-01-30T12:47:33.090Z,1.92
2023-01-30T12:50:07.506Z,2.47
2023-01-30T12:52:54.670Z,1.83
2023-01-30T12:55:22.807Z,1.95
2023-01-30T12:57:56.981Z,1.20
2023-01-30T13:00:27.948Z,1.73
2023-01-30T13:03:14.903Z,2.20
2023-01-30T13:05:43.083Z,1.90
2023-01-30T13:08:30.104Z,1.80
2023-01-30T13:11:01.095Z,1.95
2023-01-30T13:13:39.379Z,3.00
2023-01-30T13:16:27.689Z,1.73
2023-01-30T13:19:01.765Z,2.53
2023-01-30T13:21:33.538Z,1.55
2023-01-30T13:24:19.865Z,2.00
2023-01-30T13:26:51.409Z,1.52
2023-01-30T13:29:29.761Z,1.85
2023-01-30T13:32:00.283Z,3.05
2023-01-30T13:34:34.878Z,2.75
2023-01-30T13:37:04.134Z,2.47
2023-01-30T13:39:52.476Z,2.28
2023-01-30T13:42:30.565Z,2.05
2023-01-30T13:45:00.039Z,3.05
2023-01-30T13:47:39.572Z,1.58
2023-01-30T13:50:20.984Z,2.55
2023-01-30T13:53:00.223Z,2.20
2023-01-30T13:55:28.253Z,5.40
2023-01-30T13:58:00.591Z,3.72
2023-01-30T14:00:32.137Z,2.45
2023-01-30T14:03:07.703Z,1.60
2023-01-30T14:05:54.677Z,2.55
2023-01-30T14:08:25.777Z,2.97
2023-01-30T14:10:55.548Z,1.60
2023-01-30T14:13:24.841Z,2.35
2023-01-30T14:16:04.224Z,1.67
2023-01-30T14:18:38.577Z,2.42
2023-01-30T14:23:38.103Z,2.03
2023-01-30T14:26:08.809Z,2.58
2023-01-30T14:28:46.125Z,1.45
2023-01-30T14:31:34.350Z,2.42
2023-01-30T14:34:02.484Z,2.53
2023-01-30T14:36:35.019Z,2.40
2023-01-30T14:39:23.345Z,2.75
2023-01-30T14:42:12.649Z,2.20
2023-01-30T14:44:56.852Z,2.13
2023-01-30T14:47:34.557Z,2.05
2023-01-30T14:50:23.720Z,2.35
2023-01-30T14:52:56.127Z,2.25
2023-01-30T14:55:26.880Z,2.17
2023-01-30T14:57:59.983Z,2.22
2023-01-30T15:00:32.146Z,2.88
2023-01-30T15:03:09.160Z,2.33
2023-01-30T15:05:43.317Z,2.17
2023-01-30T15:08:11.735Z,1.92
2023-01-30T15:10:40.140Z,3.08
2023-01-30T15:13:27.223Z,2.05
2023-01-30T15:16:10.398Z,2.33
2023-01-30T15:18:44.594Z,2.10
2023-01-30T15:21:20.922Z,1.92
2023-01-30T15:24:06.861Z,2.65
2023-01-30T15:26:45.319Z,2.83
2023-01-30T15:29:33.418Z,2.17
2023-01-30T15:32:02.563Z,1.90
2023-01-30T15:34:34.207Z,2.53
2023-01-30T15:37:05.045Z,2.80
2023-01-30T15:39:36.120Z,2.40
2023-01-30T15:42:07.505Z,2.47
2023-01-30T15:44:46.470Z,4.38
2023-01-30T15:47:30.186Z,3.33
2023-01-30T15:50:08.309Z,3.08
2023-01-30T15:52:40.259Z,2.78
2023-01-30T15:55:15.973Z,4.10
2023-01-30T15:57:46.756Z,2.13
2023-01-30T16:00:25.723Z,2.83
2023-01-30T16:03:12.624Z,3.05
2023-01-30T16:05:47.471Z,2.20
2023-01-30T16:08:22.193Z,2.22
2023-01-30T16:10:51.912Z,1.80
2023-01-30T16:13:27.421Z,2.42
2023-01-30T16:16:12.624Z,2.78
2023-01-30T16:18:50.151Z,3.70
2023-01-30T16:21:25.082Z,3.60
2023-01-30T16:24:14.599Z,2.65
2023-01-30T16:29:16.524Z,3.03
2023-01-30T16:31:50.043Z,2.30
2023-01-30T16:34:40.530Z,3.08
2023-01-30T16:37:19.752Z,3.45
2023-01-30T16:40:20.162Z,3.70
2023-01-30T16:43:01.767Z,3.88
2023-01-30T16:45:38.877Z,2.95
2023-01-30T16:48:20.086Z,3.63
2023-01-30T16:51:09.357Z,2.60
2023-01-30T16:53:45.882Z,3.17
2023-01-30T16:56:20.298Z,2.60
2023-01-30T16:58:51.314Z,3.40
2023-01-30T17:01:20.106Z,3.13
2023-01-30T17:03:55.831Z,2.63
2023-01-30T17:06:34.698Z,2.45
2023-01-30T17:09:05.338Z,3.67
2023-01-30T17:11:38.745Z,2.92
2023-01-30T17:14:27.207Z,3.33
2023-01-30T17:17:10.045Z,3.60
2023-01-30T17:19:40.363Z,2.45
2023-01-30T17:22:15.689Z,2.60
2023-01-30T17:24:48.211Z,3.35
2023-01-30T17:27:17.302Z,4.05
2023-01-30T17:29:47.437Z,2.50
2023-01-30T17:34:51.231Z,2.08
2023-01-30T17:37:25.655Z,3.90
2023-01-30T17:40:02.635Z,3.13
2023-01-30T17:42:38.539Z,2.03
2023-01-30T17:45:15.471Z,3.00
2023-01-30T17:48:03.274Z,3.05
2023-01-30T17:50:37.500Z,2.40
2023-01-30T17:53:19.815Z,2.80
2023-01-30T17:55:59.268Z,2.60
2023-01-30T17:58:28.004Z,2.42
2023-01-30T18:01:01.345Z,3.33
2023-01-30T18:03:39.666Z,2.63
2023-01-30T18:06:14.123Z,2.75
2023-01-30T18:08:48.057Z,3.08
2023-01-30T18:11:19.962Z,4.60
2023-01-30T18:13:54.268Z,3.47
2023-01-30T18:16:42.218Z,3.13
2023-01-30T18:19:15.543Z,4.18
2023-01-30T18:21:45.473Z,3.03
2023-01-30T18:24:14.678Z,3.42
2023-01-30T18:26:45.935Z,3.28
2023-01-30T18:29:18.015Z,3.03
2023-01-30T18:31:47.433Z,2.50
2023-01-30T18:34:16.081Z,2.17
2023-01-30T18:36:47.662Z,3.20
2023-01-30T18:39:17.543Z,3.05
2023-01-30T18:42:05.601Z,3.15
2023-01-30T18:44:53.220Z,3.25
2023-01-30T18:47:42.455Z,3.45
2023-01-30T18:50:12.187Z,3.13
2023-01-30T18:52:43.977Z,4.22
2023-01-30T18:55:14.480Z,3.00
2023-01-30T18:57:43.048Z,2.45
2023-01-30T19:00:16.485Z,2.30
2023-01-30T19:03:05.165Z,2.65
2023-01-30T19:05:36.754Z,4.40
2023-01-30T19:08:07.700Z,2.97
2023-01-30T19:10:38.439Z,3.17
2023-01-30T19:13:24.920Z,2.80
2023-01-30T19:15:58.179Z,4.82
2023-01-30T19:18:29.854Z,3.00
2023-01-30T19:21:02.148Z,3.05
2023-01-30T19:23:33.976Z,3.13
2023-01-30T19:26:03.315Z,8.10
2023-01-30T19:28:32.833Z,2.85
2023-01-30T19:31:10.775Z,4.75
2023-01-30T19:33:47.074Z,2.60
2023-01-30T19:36:27.029Z,4.25
2023-01-30T19:39:08.037Z,2.42
2023-01-30T19:41:57.752Z,2.85
2023-01-30T19:44:45.493Z,3.97
2023-01-30T19:47:22.044Z,2.80
2023-01-30T19:49:59.601Z,3.10
2023-01-30T19:52:47.249Z,5.97
2023-01-30T19:55:21.722Z,4.78
2023-01-30T19:58:02.945Z,3.35
2023-01-30T20:00:40.816Z,4.22
2023-01-30T20:03:26.549Z,8.52
2023-01-30T20:06:20.685Z,3.88
2023-01-30T20:08:54.687Z,5.63
2023-01-30T20:11:25.287Z,9.05
2023-01-30T20:13:55.941Z,5.70
2023-01-30T20:16:27.839Z,9.35
2023-01-30T20:18:57.854Z,13.20
2023-01-30T20:21:29.908Z,6.55
2023-01-30T20:24:05.404Z,2.78
2023-01-30T20:26:51.427Z,2.50
2023-01-30T20:29:26.888Z,2.35
2023-01-30T20:32:01.026Z,2.95
2023-01-30T20:34:39.319Z,2.38
2023-01-30T20:37:18.092Z,2.70
2023-01-30T20:39:59.110Z,2.95
2023-01-30T20:42:37.593Z,2.75
2023-01-30T20:45:14.070Z,2.55
2023-01-30T20:47:46.438Z,2.08
2023-01-30T20:50:15.440Z,1.67
2023-01-30T20:52:44.001Z,2.90
2023-01-30T20:55:12.527Z,3.72
2023-01-30T20:57:45.723Z,3.47
2023-01-30T21:00:14.882Z,2.08
2023-01-30T21:02:48.506Z,3.38
2023-01-30T21:05:20.350Z,2.63
2023-01-30T21:07:50.031Z,2.85
2023-01-30T21:10:18.812Z,2.70
2023-01-30T21:12:55.235Z,2.50
2023-01-30T21:15:24.412Z,3.10
2023-01-30T21:18:00.341Z,2.97
2023-01-30T21:20:48.793Z,2.22
2023-01-30T21:23:21.712Z,3.25
2023-01-30T21:25:51.445Z,3.83
2023-01-30T21:28:23.239Z,2.60
2023-01-30T21:30:52.614Z,2.97
2023-01-30T21:33:34.317Z,3.63
2023-01-30T21:36:04.046Z,6.00
2023-01-30T21:38:50.459Z,6.30
2023-01-30T21:42:00.260Z,6.18
2023-01-30T21:44:40.810Z,4.35
2023-01-30T21:47:11.075Z,3.63
2023-01-30T21:49:43.961Z,4.65
2023-01-30T21:52:13.240Z,2.88
2023-01-30T21:54:45.572Z,2.88
2023-01-30T21:57:20.088Z,2.85
2023-01-30T21:59:48.925Z,2.55
2023-01-30T22:02:21.046Z,2.53
2023-01-30T22:05:00.030Z,2.55
2023-01-30T22:07:33.306Z,3.17
2023-01-30T22:10:05.591Z,3.45
2023-01-30T22:12:40.008Z,2.63
2023-01-30T22:15:11.104Z,3.53
2023-01-30T22:17:49.896Z,3.45
2023-01-30T22:20:18.327Z,4.03
2023-01-30T22:22:53.391Z,3.60
2023-01-30T22:25:21.904Z,3.03
2023-01-30T22:27:51.135Z,3.28
2023-01-30T22:30:22.048Z,3.35
2023-01-30T22:33:09.633Z,3.83
2023-01-30T22:35:40.220Z,3.97
2023-01-30T22:38:11.294Z,9.40
2023-01-30T22:40:39.810Z,6.90
2023-01-30T22:43:08.414Z,7.65
2023-01-30T22:45:38.259Z,5.18
2023-01-30T22:48:06.648Z,4.57
2023-01-30T22:50:42.124Z,5.43
2023-01-30T22:53:10.771Z,4.43
2023-01-30T22:55:41.747Z,5.13
2023-01-30T22:58:11.315Z,4.22
2023-01-30T23:00:44.502Z,5.80
2023-01-30T23:03:32.029Z,4.18
2023-01-30T23:06:17.726Z,4.40
2023-01-30T23:08:57.030Z,3.60
2023-01-30T23:11:29.869Z,4.68
2023-01-30T23:14:00.499Z,3.83
2023-01-30T23:16:34.309Z,3.47
2023-01-30T23:19:04.509Z,4.70
2023-01-30T23:21:35.784Z,3.60
2023-01-30T23:24:06.249Z,3.50
2023-01-30T23:26:39.113Z,4.13
2023-01-30T23:29:13.073Z,3.30
2023-01-30T23:31:45.245Z,3.78
2023-01-30T23:34:20.264Z,5.28
2023-01-30T23:36:53.948Z,4.13
2023-01-30T23:39:24.451Z,4.43
2023-01-30T23:41:55.607Z,3.30
2023-01-30T23:44:26.330Z,4.07
2023-01-30T23:46:54.703Z,5.00
2023-01-30T23:49:28.113Z,4.82
2023-01-30T23:51:57.542Z,8.90
2023-01-30T23:54:26.001Z,14.07
2023-01-30T23:56:55.267Z,12.23
2023-01-30T23:59:24.095Z,10.30
